Terminal Aerodrome Forecast
Issued by NWS St Louis, MO

Home | Current Version | Previous Version | Text Only | Print | Product List | Glossary On
Versions: 1 2 3 4 5 6 7 8 9 10 11 12 13 14 15 16 17 18 19 20 21 22 23 24 25 26 27 28 29 30 31 32
000
FTUS43 KLSX 222332
TAFSTL
TAF
KSTL 222332Z 2300/2406 34009KT P6SM -RA SCT015 OVC040
      TEMPO 2300/2304 4SM -SHRA BR
     FM230600 32009KT P6SM SCT020 OVC060
      TEMPO 2306/2310 -RA
     FM231500 29008KT P6SM SCT100 BKN250
     FM232100 29013G21KT P6SM SCT100 BKN250=

USA.gov is the U.S. government's official web portal to all federal, state and local government web resources and services.